Time;durP1;ratioP1;P1;durP2;ratioP2;P2;SDS_P1;SDS_P2;PMS_P1;PMS_P2;Temp;Humidity;BMP_temperature;BMP_pressure;BME280_temperature;BME280_humidity;BME280_pressure;Samples;Min_cycle;Max_cycle;Signal;HPM_P1;HPM_P2
2021/11/29 00:00:41;;;;;;;3.55;0.90;;;;;;;2.78;62.48;96394.84;5042896;28;20158;-61
2021/11/29 00:03:11;;;;;;;2.08;0.75;;;;;;;2.85;61.61;96392.50;4993144;28;20028;-60
2021/11/29 00:05:36;;;;;;;3.30;0.93;;;;;;;2.82;62.42;96385.09;5043801;28;20021;-61
2021/11/29 00:08:03;;;;;;;3.97;1.15;;;;;;;2.91;62.66;96396.22;5019396;28;20109;-61
2021/11/29 00:10:30;;;;;;;3.55;0.90;;;;;;;2.60;63.56;96360.72;5056138;28;20127;-60
2021/11/29 00:12:56;;;;;;;2.75;0.88;;;;;;;2.23;64.11;96311.25;5061788;28;20493;-59
2021/11/29 00:15:22;;;;;;;2.47;0.88;;;;;;;2.53;64.57;96350.25;5037400;28;20398;-60
2021/11/29 00:17:48;;;;;;;2.38;0.77;;;;;;;2.60;64.66;96368.41;5048998;28;20152;-61
2021/11/29 00:20:15;;;;;;;3.13;0.88;;;;;;;2.71;65.13;96404.09;5041424;28;20422;-61
2021/11/29 00:22:40;;;;;;;3.38;1.00;;;;;;;2.77;64.84;96397.56;5044740;28;20028;-60
2021/11/29 00:25:06;;;;;;;2.90;1.05;;;;;;;2.84;64.72;96398.56;5030854;28;20451;-61
2021/11/29 00:27:32;;;;;;;2.78;0.80;;;;;;;2.77;65.33;96398.34;5047624;28;20037;-61
2021/11/29 00:29:58;;;;;;;3.58;0.90;;;;;;;2.76;64.87;96404.47;5030367;28;20136;-61
2021/11/29 00:32:24;;;;;;;3.35;1.10;;;;;;;2.79;64.33;96403.34;5058949;28;20112;-60
2021/11/29 00:34:50;;;;;;;2.55;0.80;;;;;;;2.70;64.93;96389.63;4991097;28;20040;-61
2021/11/29 00:37:15;;;;;;;4.25;1.27;;;;;;;2.62;66.41;96387.03;5050054;28;20043;-61
2021/11/29 00:39:41;;;;;;;3.40;1.10;;;;;;;2.62;66.92;96389.59;5050262;28;20036;-61
2021/11/29 00:42:06;;;;;;;3.15;0.98;;;;;;;2.80;65.63;96410.09;5034989;28;20067;-61
2021/11/29 00:44:31;;;;;;;2.70;1.00;;;;;;;2.79;65.85;96414.44;5036239;28;20166;-61
2021/11/29 00:46:58;;;;;;;3.33;1.02;;;;;;;2.62;65.18;96387.81;5043454;28;20547;-60
2021/11/29 00:49:23;;;;;;;2.97;0.93;;;;;;;2.92;65.28;96423.47;5039583;28;20063;-61
2021/11/29 00:51:49;;;;;;;2.70;0.90;;;;;;;2.54;66.09;96372.38;4990258;28;20131;-61
2021/11/29 00:54:14;;;;;;;4.35;1.30;;;;;;;2.70;66.24;96410.16;5048800;28;20467;-61
2021/11/29 00:56:40;;;;;;;2.88;0.90;;;;;;;2.79;67.24;96431.56;5040957;28;20029;-61
2021/11/29 00:59:06;;;;;;;3.15;1.10;;;;;;;2.71;67.15;96431.53;5018042;28;20025;-61
2021/11/29 01:01:31;;;;;;;3.13;1.10;;;;;;;2.75;67.13;96435.41;5051930;28;20036;-61
2021/11/29 01:03:57;;;;;;;2.42;0.95;;;;;;;2.63;67.16;96437.41;5048902;28;20040;-60
2021/11/29 01:06:22;;;;;;;2.78;0.90;;;;;;;2.60;67.42;96435.94;5046867;28;20024;-61
2021/11/29 01:08:48;;;;;;;3.53;1.10;;;;;;;2.60;68.39;96435.94;5043694;28;20032;-61
2021/11/29 01:11:13;;;;;;;2.95;0.90;;;;;;;2.63;67.72;96442.53;5042779;28;20036;-61
2021/11/29 01:13:40;;;;;;;2.78;0.88;;;;;;;2.57;67.84;96430.28;5052834;28;20052;-61
2021/11/29 01:16:06;;;;;;;2.67;0.90;;;;;;;2.34;67.78;96394.00;5043609;28;20548;-61
2021/11/29 01:18:31;;;;;;;3.55;1.15;;;;;;;1.94;66.77;96333.75;5027575;28;20045;-60
2021/11/29 01:20:57;;;;;;;2.60;1.00;;;;;;;2.76;67.15;96440.38;5024798;28;20024;-61
2021/11/29 01:23:23;;;;;;;3.55;1.10;;;;;;;2.51;67.19;96390.63;5045086;28;20105;-60
2021/11/29 01:25:50;;;;;;;6.18;2.30;;;;;;;2.79;65.97;96447.81;5006705;28;20029;-60
2021/11/29 01:28:15;;;;;;;3.35;1.15;;;;;;;2.82;66.52;96446.69;5042228;28;20828;-61
2021/11/29 01:30:41;;;;;;;3.30;1.08;;;;;;;2.77;66.93;96456.59;5055929;28;20036;-61
2021/11/29 01:33:07;;;;;;;3.33;1.08;;;;;;;2.82;67.66;96450.06;5052497;28;20065;-61
2021/11/29 01:35:33;;;;;;;3.20;1.20;;;;;;;2.70;67.71;96443.53;5056433;28;20406;-61
2021/11/29 01:37:59;;;;;;;2.90;1.00;;;;;;;2.52;68.67;96427.34;5030561;28;20020;-61
2021/11/29 01:40:26;;;;;;;3.35;1.20;;;;;;;2.78;68.48;96458.22;5055085;28;20125;-61
2021/11/29 01:43:00;;;;;;;2.85;1.02;;;;;;;2.76;68.79;96452.44;5033723;28;20066;-61
2021/11/29 01:45:27;;;;;;;3.17;1.00;;;;;;;2.83;67.76;96461.13;5023404;28;20103;-61
2021/11/29 01:47:52;;;;;;;3.28;1.00;;;;;;;2.79;67.19;96455.50;5034320;28;20833;-61
2021/11/29 01:50:18;;;;;;;3.90;1.10;;;;;;;2.60;67.96;96432.56;5052002;28;20111;-61
2021/11/29 01:52:43;;;;;;;3.03;1.00;;;;;;;2.78;68.64;96468.47;5054834;28;20032;-60
2021/11/29 01:55:09;;;;;;;3.97;1.23;;;;;;;2.71;69.56;96463.13;5037316;28;20031;-60
2021/11/29 01:57:34;;;;;;;3.83;1.10;;;;;;;2.75;69.01;96474.69;5028528;28;20055;-60
2021/11/29 02:00:00;;;;;;;3.60;1.20;;;;;;;2.66;69.65;96478.94;5054976;28;20146;-60
2021/11/29 02:02:28;;;;;;;3.25;1.00;;;;;;;2.63;69.69;96468.19;5054141;28;20058;-61
2021/11/29 02:04:54;;;;;;;3.22;1.20;;;;;;;2.63;70.40;96476.69;5038896;28;20035;-60
2021/11/29 02:07:20;;;;;;;2.80;1.00;;;;;;;2.63;69.30;96473.34;5056436;28;20037;-60
2021/11/29 02:09:45;;;;;;;9.15;4.78;;;;;;;2.60;69.70;96473.63;5054827;28;20462;-60
2021/11/29 02:12:11;;;;;;;5.95;2.70;;;;;;;2.64;69.53;96468.03;5047141;28;20033;-60
2021/11/29 02:14:38;;;;;;;4.47;1.38;;;;;;;2.59;69.40;96461.72;5024023;28;20129;-60
2021/11/29 02:17:06;;;;;;;2.70;0.90;;;;;;;2.70;68.71;96482.03;5052664;28;20028;-60
2021/11/29 02:19:37;;;;;;;2.85;0.90;;;;;;;2.60;68.86;96473.63;5055044;28;20070;-60
2021/11/29 02:22:03;;;;;;;3.25;1.10;;;;;;;2.52;69.11;96466.66;5045645;28;20025;-60
2021/11/29 02:24:29;;;;;;;2.55;0.90;;;;;;;2.58;68.26;96467.81;5052861;28;20090;-60
2021/11/29 02:26:54;;;;;;;2.83;0.90;;;;;;;2.61;68.11;96478.59;5062614;28;20045;-60
2021/11/29 02:29:20;;;;;;;2.70;0.80;;;;;;;2.66;68.06;96470.44;4973406;28;20132;-60
2021/11/29 02:31:47;;;;;;;2.28;0.77;;;;;;;2.40;68.03;96444.75;5036117;28;20111;-60
2021/11/29 02:34:20;;;;;;;2.30;0.80;;;;;;;2.60;68.17;96483.88;5035721;28;20087;-60
2021/11/29 02:36:49;;;;;;;3.33;0.95;;;;;;;2.60;67.30;96474.41;5055508;28;20043;-59
2021/11/29 02:39:15;;;;;;;3.30;1.00;;;;;;;2.54;68.37;96477.56;5038182;28;20067;-60
2021/11/29 02:41:41;;;;;;;3.40;1.00;;;;;;;2.54;68.74;96489.56;5030985;28;20024;-60
2021/11/29 02:44:07;;;;;;;3.13;1.10;;;;;;;2.25;69.03;96436.75;5026667;28;20033;-60
2021/11/29 02:46:33;;;;;;;3.30;1.10;;;;;;;2.56;68.78;96482.56;5030931;28;20036;-60
2021/11/29 02:49:00;;;;;;;3.33;1.00;;;;;;;2.57;69.19;96491.84;5056904;28;20032;-60
2021/11/29 02:51:29;;;;;;;3.92;1.10;;;;;;;2.47;69.59;96482.47;5056238;28;20032;-60
2021/11/29 02:54:08;;;;;;;3.50;1.10;;;;;;;2.21;70.11;96448.22;5039140;28;20407;-60
2021/11/29 02:56:38;;;;;;;3.60;1.17;;;;;;;2.41;70.48;96487.38;5054938;28;20028;-60
2021/11/29 02:59:20;;;;;;;3.45;0.98;;;;;;;2.40;70.94;96496.03;5049073;28;20097;-60
2021/11/29 03:01:48;;;;;;;4.00;1.00;;;;;;;2.37;71.62;96496.31;5003520;28;20489;-60
2021/11/29 03:04:14;;;;;;;3.63;1.10;;;;;;;2.34;71.73;96502.56;5052413;28;20029;-60
2021/11/29 03:06:39;;;;;;;3.88;1.00;;;;;;;2.32;73.39;96501.91;5031843;28;20083;-60
2021/11/29 03:09:05;;;;;;;3.20;1.02;;;;;;;2.28;72.48;96497.97;5053092;28;20102;-60
2021/11/29 03:11:31;;;;;;;3.08;1.10;;;;;;;2.11;72.82;96490.13;5046826;28;20086;-60
2021/11/29 03:13:57;;;;;;;2.83;0.93;;;;;;;2.08;72.47;96484.47;5055304;28;20536;-60
2021/11/29 03:16:23;;;;;;;3.45;1.00;;;;;;;1.93;72.56;96466.22;5018524;28;20119;-60
2021/11/29 03:18:49;;;;;;;3.10;0.80;;;;;;;2.23;71.94;96506.13;5057372;28;20115;-60
2021/11/29 03:21:17;;;;;;;2.75;0.75;;;;;;;2.33;71.45;96518.09;5058322;28;20079;-60
2021/11/29 03:23:44;;;;;;;3.40;1.00;;;;;;;2.31;71.50;96519.03;5040748;28;20077;-60
2021/11/29 03:26:14;;;;;;;3.28;1.00;;;;;;;2.38;71.36;96536.41;5038674;28;20111;-60
2021/11/29 03:28:41;;;;;;;4.07;0.93;;;;;;;2.02;71.82;96483.28;5050294;28;20028;-60
2021/11/29 03:31:07;;;;;;;2.80;0.88;;;;;;;2.33;71.46;96536.03;5048490;28;20032;-60
2021/11/29 03:33:34;;;;;;;2.92;0.80;;;;;;;2.38;71.44;96539.78;5023787;28;20025;-60
2021/11/29 03:36:00;;;;;;;2.45;0.90;;;;;;;2.32;71.13;96537.81;5054372;28;20528;-60
2021/11/29 03:38:25;;;;;;;2.90;0.88;;;;;;;2.35;70.76;96541.81;5043607;28;20064;-60
2021/11/29 03:40:51;;;;;;;1.45;0.50;;;;;;;2.39;69.59;96538.84;5029799;28;20848;-60
2021/11/29 03:43:16;;;;;;;2.15;0.75;;;;;;;2.30;69.58;96529.44;5044108;28;20382;-60
2021/11/29 03:45:41;;;;;;;1.73;0.65;;;;;;;2.48;68.27;96545.66;5058575;28;20024;-60
2021/11/29 03:48:07;;;;;;;2.30;0.80;;;;;;;2.47;67.81;96541.47;5044323;28;20028;-60
2021/11/29 03:50:32;;;;;;;1.90;0.70;;;;;;;2.22;68.27;96503.69;5057392;28;20033;-60
2021/11/29 03:52:58;;;;;;;1.85;0.60;;;;;;;2.53;69.05;96554.69;5041369;28;20614;-60
2021/11/29 03:55:24;;;;;;;1.52;0.50;;;;;;;2.35;68.28;96545.19;5050438;28;20116;-60
2021/11/29 03:57:49;;;;;;;2.08;0.60;;;;;;;2.44;67.97;96553.78;5055849;28;20038;-60
2021/11/29 04:00:15;;;;;;;2.03;0.60;;;;;;;2.43;67.92;96545.28;5058297;28;20032;-60
2021/11/29 04:02:41;;;;;;;1.70;0.60;;;;;;;2.33;67.54;96531.69;5042268;28;20028;-60
2021/11/29 04:05:07;;;;;;;2.38;0.70;;;;;;;2.21;68.20;96496.94;5051222;28;20021;-60
2021/11/29 04:07:33;;;;;;;1.70;0.68;;;;;;;2.48;68.48;96544.84;5044269;28;20129;-60
2021/11/29 04:09:58;;;;;;;2.50;0.80;;;;;;;2.49;68.99;96552.41;5044935;28;20152;-60
2021/11/29 04:12:24;;;;;;;2.22;0.70;;;;;;;2.53;69.46;96555.47;5055230;28;20021;-60
2021/11/29 04:14:49;;;;;;;2.05;0.70;;;;;;;2.54;69.83;96549.41;5057019;28;20036;-60
2021/11/29 04:17:15;;;;;;;2.95;0.80;;;;;;;2.54;70.04;96553.72;5047788;28;20100;-59
2021/11/29 04:19:43;;;;;;;2.22;0.70;;;;;;;1.94;70.29;96479.84;5047351;28;20068;-60
2021/11/29 04:22:09;;;;;;;2.35;0.70;;;;;;;2.50;70.76;96561.72;5053650;28;20135;-60
2021/11/29 04:24:37;;;;;;;2.60;0.85;;;;;;;2.45;70.75;96556.22;5038974;28;20111;-60
2021/11/29 04:27:05;;;;;;;3.33;1.00;;;;;;;2.27;72.50;96527.16;5042719;28;20106;-60
2021/11/29 04:29:33;;;;;;;2.03;0.60;;;;;;;2.23;73.02;96528.41;5043360;28;20090;-60
2021/11/29 04:31:58;;;;;;;1.83;0.68;;;;;;;2.53;72.82;96572.66;5027864;28;20107;-60
2021/11/29 04:34:23;;;;;;;1.98;0.70;;;;;;;2.50;70.56;96571.97;5057270;28;20032;-60
2021/11/29 04:36:49;;;;;;;3.50;0.70;;;;;;;2.49;69.86;96577.25;5056521;28;20093;-60
2021/11/29 04:39:16;;;;;;;2.83;0.75;;;;;;;2.42;70.20;96571.88;5052755;28;20102;-60
2021/11/29 04:41:42;;;;;;;2.35;0.70;;;;;;;2.46;69.13;96580.09;5038092;28;20040;-59
2021/11/29 04:44:08;;;;;;;3.42;0.70;;;;;;;2.51;68.36;96577.91;5059485;28;20796;-60
2021/11/29 04:46:34;;;;;;;2.00;0.60;;;;;;;2.57;69.05;96595.28;5062438;28;20021;-60
2021/11/29 04:48:59;;;;;;;3.28;0.52;;;;;;;2.50;69.94;96591.69;5063578;28;20554;-60
2021/11/29 04:51:25;;;;;;;2.25;0.70;;;;;;;2.36;70.15;96580.16;5040364;28;20055;-60
2021/11/29 04:53:51;;;;;;;1.23;0.50;;;;;;;2.48;69.48;96591.03;5057469;28;20059;-60
2021/11/29 04:56:16;;;;;;;1.52;0.68;;;;;;;2.43;70.34;96599.16;5046040;28;20025;-60
2021/11/29 04:58:42;;;;;;;2.25;0.80;;;;;;;2.40;70.63;96603.78;5056792;28;20043;-61
2021/11/29 05:01:07;;;;;;;2.55;0.77;;;;;;;2.38;70.59;96606.47;5038306;28;20056;-60
2021/11/29 05:03:33;;;;;;;2.20;0.63;;;;;;;2.38;70.79;96616.72;5044102;28;20033;-60
2021/11/29 05:05:58;;;;;;;2.22;0.60;;;;;;;2.33;70.61;96605.28;5048849;28;20224;-60
2021/11/29 05:08:24;;;;;;;2.25;0.70;;;;;;;2.26;71.31;96610.16;5059848;28;20101;-60
2021/11/29 05:10:49;;;;;;;1.95;0.60;;;;;;;2.45;70.75;96617.78;5058929;28;20052;-60
2021/11/29 05:13:17;;;;;;;1.20;0.47;;;;;;;2.19;69.96;96589.44;5055872;28;20036;-61
2021/11/29 05:15:43;;;;;;;1.27;0.40;;;;;;;2.46;69.65;96637.38;5051529;28;20046;-60
2021/11/29 05:18:08;;;;;;;2.40;0.63;;;;;;;2.52;69.74;96636.00;5057445;28;20032;-60
2021/11/29 05:20:34;;;;;;;4.72;0.80;;;;;;;2.22;69.57;96586.56;5052863;28;20402;-60
2021/11/29 05:22:59;;;;;;;1.55;0.52;;;;;;;2.53;68.79;96645.28;5038790;28;20375;-60
2021/11/29 05:25:24;;;;;;;2.03;0.68;;;;;;;2.56;70.03;96649.34;5039519;28;20025;-60
2021/11/29 05:27:50;;;;;;;3.15;0.80;;;;;;;2.33;69.31;96615.53;5055095;28;20032;-61
2021/11/29 05:30:15;;;;;;;3.47;0.90;;;;;;;2.19;72.56;96596.28;5050011;28;20490;-60
2021/11/29 05:32:41;;;;;;;3.67;1.08;;;;;;;2.42;74.05;96655.72;5041003;28;20119;-60
2021/11/29 05:35:06;;;;;;;2.78;1.00;;;;;;;2.27;72.14;96669.00;5037191;28;20033;-60
2021/11/29 05:37:33;;;;;;;2.45;0.90;;;;;;;2.30;68.93;96658.47;5040036;28;20276;-60
2021/11/29 05:39:58;;;;;;;2.67;0.90;;;;;;;2.38;68.04;96665.47;5058670;28;20048;-60
2021/11/29 05:42:24;;;;;;;2.80;0.98;;;;;;;2.43;69.21;96660.72;5048117;28;20028;-60
2021/11/29 05:44:50;;;;;;;1.38;0.50;;;;;;;2.53;66.33;96676.06;5039458;28;20024;-60
2021/11/29 05:47:19;;;;;;;1.98;0.60;;;;;;;2.64;66.28;96675.06;5044091;28;20056;-60
2021/11/29 05:49:45;;;;;;;1.70;0.70;;;;;;;2.61;65.84;96677.91;5047812;28;20167;-60
2021/11/29 05:52:11;;;;;;;1.75;0.50;;;;;;;2.34;66.08;96635.94;5055889;28;20115;-59
2021/11/29 05:54:36;;;;;;;1.65;0.47;;;;;;;2.60;66.04;96684.03;5048634;28;20376;-59
2021/11/29 05:57:02;;;;;;;1.63;0.50;;;;;;;2.37;65.60;96647.66;5047907;28;20497;-59
2021/11/29 05:59:27;;;;;;;2.63;0.93;;;;;;;2.39;65.81;96651.72;5049574;28;20037;-59
2021/11/29 06:01:53;;;;;;;2.63;0.82;;;;;;;2.73;65.36;96699.09;5058272;28;20023;-60
2021/11/29 06:04:19;;;;;;;2.55;0.55;;;;;;;2.64;65.44;96698.19;5056931;28;20036;-60
2021/11/29 06:06:44;;;;;;;1.50;0.50;;;;;;;2.64;65.13;96708.44;5039005;28;20055;-60
2021/11/29 06:09:10;;;;;;;2.85;0.40;;;;;;;2.54;64.08;96671.72;5028233;28;20070;-60
2021/11/29 06:11:36;;;;;;;1.90;0.50;;;;;;;2.77;64.20;96721.75;5030598;28;20030;-60
2021/11/29 06:14:01;;;;;;;2.72;0.70;;;;;;;2.76;64.59;96706.50;5031207;28;20032;-60
2021/11/29 06:16:27;;;;;;;1.60;0.50;;;;;;;2.70;64.96;96723.25;5035097;28;20080;-60
2021/11/29 06:18:52;;;;;;;2.60;0.57;;;;;;;2.67;64.90;96708.16;5061493;28;20044;-60
2021/11/29 06:21:18;;;;;;;2.67;0.60;;;;;;;2.49;63.35;96677.31;5059236;28;20031;-60
2021/11/29 06:23:43;;;;;;;1.27;0.32;;;;;;;2.83;63.64;96723.75;5050051;28;20028;-60
2021/11/29 06:26:08;;;;;;;0.98;0.40;;;;;;;2.59;62.67;96688.34;5052345;28;20264;-60
2021/11/29 06:28:34;;;;;;;1.98;0.73;;;;;;;2.82;65.15;96747.00;5042697;28;20127;-61
2021/11/29 06:31:00;;;;;;;2.90;0.77;;;;;;;2.89;63.28;96732.66;5055128;28;20261;-60
2021/11/29 06:33:25;;;;;;;3.50;0.88;;;;;;;2.76;62.95;96716.78;5048978;28;20158;-60
2021/11/29 06:35:51;;;;;;;4.15;1.15;;;;;;;2.79;65.79;96748.09;5049576;28;20025;-60
2021/11/29 06:38:17;;;;;;;2.25;0.55;;;;;;;2.67;64.76;96737.19;5048086;28;20067;-60
2021/11/29 06:40:49;;;;;;;2.78;0.80;;;;;;;2.81;65.64;96750.50;5041235;28;20101;-60
2021/11/29 06:43:14;;;;;;;2.40;0.70;;;;;;;2.55;65.78;96748.56;5053120;28;21485;-60
2021/11/29 06:45:40;;;;;;;2.47;0.88;;;;;;;2.53;68.27;96765.88;5035450;28;20143;-60
2021/11/29 06:48:05;;;;;;;3.83;1.50;;;;;;;2.57;69.18;96754.38;5044670;28;20025;-60
2021/11/29 06:50:31;;;;;;;3.28;1.02;;;;;;;2.55;68.74;96760.59;5053335;28;20564;-60
2021/11/29 06:52:56;;;;;;;3.63;1.15;;;;;;;2.36;69.69;96766.59;5052056;28;20037;-61
2021/11/29 06:55:22;;;;;;;4.22;1.00;;;;;;;2.59;65.92;96762.75;5018956;28;20762;-61
2021/11/29 06:57:48;;;;;;;6.18;1.88;;;;;;;2.51;68.54;96783.16;5047760;28;20029;-60
2021/11/29 07:00:20;;;;;;;3.50;1.27;;;;;;;2.63;66.55;96776.94;5036981;28;20033;-60
2021/11/29 07:02:46;;;;;;;4.10;1.60;;;;;;;2.72;67.59;96780.41;5056036;28;20104;-60
2021/11/29 07:05:14;;;;;;;1.42;0.40;;;;;;;2.93;61.68;96775.06;5041132;28;20021;-60
2021/11/29 07:07:39;;;;;;;0.70;0.30;;;;;;;3.08;61.46;96781.34;5040417;28;20037;-60
2021/11/29 07:10:06;;;;;;;1.77;0.57;;;;;;;3.27;60.56;96783.00;5056849;28;20027;-60
2021/11/29 07:12:31;;;;;;;1.60;0.57;;;;;;;2.90;61.40;96749.66;5051800;28;20041;-60
2021/11/29 07:14:57;;;;;;;1.50;0.43;;;;;;;3.20;60.88;96792.22;5048371;28;20036;-60
2021/11/29 07:17:22;;;;;;;0.82;0.30;;;;;;;3.13;57.32;96750.09;5050292;28;20750;-61
2021/11/29 07:19:52;;;;;;;1.25;0.40;;;;;;;3.31;55.68;96754.47;5049700;28;20028;-61
2021/11/29 07:22:19;;;;;;;0.98;0.40;;;;;;;3.62;56.46;96804.56;5048201;28;20029;-60
2021/11/29 07:24:45;;;;;;;1.33;0.45;;;;;;;3.31;57.50;96762.19;5055643;28;20064;-60
2021/11/29 07:27:11;;;;;;;1.23;0.38;;;;;;;3.49;57.79;96811.81;5052580;28;20064;-60
2021/11/29 07:29:36;;;;;;;1.23;0.50;;;;;;;3.53;56.66;96831.13;5050107;28;20037;-60
2021/11/29 07:32:02;;;;;;;2.78;0.52;;;;;;;3.64;56.80;96812.13;5056262;28;20385;-60
2021/11/29 07:34:27;;;;;;;1.42;0.35;;;;;;;3.57;55.52;96814.47;5044790;28;20021;-60
2021/11/29 07:36:53;;;;;;;0.73;0.30;;;;;;;3.86;54.30;96841.75;5041595;28;20035;-60
2021/11/29 07:39:18;;;;;;;1.00;0.43;;;;;;;3.94;53.85;96830.75;5052427;28;20029;-60
2021/11/29 07:41:44;;;;;;;1.67;0.38;;;;;;;4.06;51.44;96828.78;5034345;28;20037;-60
2021/11/29 07:44:09;;;;;;;2.10;0.50;;;;;;;4.16;51.78;96855.22;5053137;28;20033;-60
2021/11/29 07:46:35;;;;;;;1.92;0.40;;;;;;;4.22;50.65;96852.06;5055170;28;20033;-60
2021/11/29 07:49:01;;;;;;;1.20;0.38;;;;;;;4.29;51.05;96853.09;5036306;28;20028;-61
2021/11/29 07:51:27;;;;;;;1.02;0.30;;;;;;;4.01;51.19;96812.00;5040990;28;20653;-61
2021/11/29 07:53:53;;;;;;;1.05;0.40;;;;;;;4.14;50.64;96827.06;5053417;28;20570;-61
2021/11/29 07:56:19;;;;;;;1.52;0.40;;;;;;;4.18;49.84;96848.97;5043158;28;20037;-60
2021/11/29 07:58:44;;;;;;;1.40;0.40;;;;;;;4.37;50.35;96863.44;5054774;28;20028;-60
2021/11/29 08:01:11;;;;;;;2.78;0.60;;;;;;;4.36;50.31;96866.16;5038812;28;20024;-61
2021/11/29 08:03:37;;;;;;;1.50;0.40;;;;;;;4.21;49.16;96840.16;5042585;28;20017;-60
2021/11/29 08:06:03;;;;;;;1.00;0.38;;;;;;;4.43;49.19;96868.00;5055304;28;20557;-61
2021/11/29 08:08:28;;;;;;;1.30;0.40;;;;;;;4.51;49.46;96869.84;5060958;28;20020;-61
2021/11/29 08:10:53;;;;;;;1.80;0.60;;;;;;;4.58;47.95;96872.59;5061655;28;20464;-60
2021/11/29 08:13:19;;;;;;;0.25;0.20;;;;;;;4.58;49.40;96872.59;5059260;28;20108;-61
2021/11/29 08:15:44;;;;;;;1.65;0.50;;;;;;;4.50;50.54;96880.28;5019064;28;20397;-61
2021/11/29 08:18:10;;;;;;;1.42;0.50;;;;;;;4.25;49.64;96836.31;5042618;28;20039;-60
2021/11/29 08:20:36;;;;;;;1.02;0.40;;;;;;;4.54;49.39;96889.31;5053550;28;20143;-59
2021/11/29 08:23:02;;;;;;;1.88;0.60;;;;;;;4.54;51.17;96884.16;5062636;28;20032;-60
2021/11/29 08:25:27;;;;;;;1.55;0.50;;;;;;;4.55;49.68;96903.81;5038147;28;20816;-60
2021/11/29 08:27:53;;;;;;;1.13;0.40;;;;;;;4.18;51.44;96854.13;5031565;28;20024;-60
2021/11/29 08:30:22;;;;;;;1.17;0.35;;;;;;;4.47;50.99;96888.28;5058737;28;20032;-60
2021/11/29 08:32:47;;;;;;;1.33;0.40;;;;;;;4.43;50.48;96862.88;5040134;28;20464;-60
2021/11/29 08:35:15;;;;;;;1.50;0.50;;;;;;;4.59;48.22;96898.19;5060123;28;20115;-60
2021/11/29 08:37:45;;;;;;;1.35;0.38;;;;;;;4.80;49.46;96905.63;5052809;28;20016;-60
2021/11/29 08:40:12;;;;;;;1.27;0.38;;;;;;;4.98;48.06;96904.75;5061692;28;20039;-60
2021/11/29 08:42:38;;;;;;;0.77;0.38;;;;;;;4.95;48.54;96893.00;5046745;28;20581;-60
2021/11/29 08:45:05;;;;;;;1.75;0.55;;;;;;;5.02;46.98;96913.81;5039190;28;20060;-59
2021/11/29 08:47:30;;;;;;;1.02;0.40;;;;;;;5.10;48.21;96919.00;5025884;28;20035;-60
2021/11/29 08:49:56;;;;;;;0.90;0.30;;;;;;;5.24;46.34;96915.06;5023861;28;20464;-60
2021/11/29 08:52:22;;;;;;;1.52;0.40;;;;;;;5.18;48.15;96920.81;5024308;28;20021;-60
2021/11/29 08:54:48;;;;;;;1.48;0.40;;;;;;;4.97;46.31;96877.41;5055345;28;20390;-60
2021/11/29 08:57:13;;;;;;;1.42;0.40;;;;;;;5.44;48.90;96925.97;5055301;28;20020;-60
2021/11/29 08:59:39;;;;;;;3.45;0.60;;;;;;;5.30;48.46;96880.16;5058607;28;20399;-60
2021/11/29 09:02:05;;;;;;;1.48;0.47;;;;;;;5.57;45.76;96898.00;5046995;28;20478;-60
2021/11/29 09:04:31;;;;;;;2.00;0.50;;;;;;;5.87;46.68;96942.25;5021373;28;20029;-60
2021/11/29 09:06:56;;;;;;;1.30;0.47;;;;;;;5.78;45.74;96943.19;5054111;28;20033;-60
2021/11/29 09:09:22;;;;;;;0.95;0.30;;;;;;;5.79;44.60;96952.56;5055921;28;20095;-61
2021/11/29 09:11:48;;;;;;;1.67;0.50;;;;;;;5.85;46.10;96954.50;5042237;28;20032;-61
2021/11/29 09:14:13;;;;;;;1.95;0.45;;;;;;;5.73;43.52;96958.31;5058784;28;20028;-60
2021/11/29 09:16:39;;;;;;;2.05;0.60;;;;;;;5.75;43.53;96970.13;5056315;28;20028;-60
2021/11/29 09:19:05;;;;;;;1.10;0.40;;;;;;;5.91;41.77;96960.81;5059042;28;20021;-60
2021/11/29 09:21:31;;;;;;;1.35;0.45;;;;;;;6.00;41.21;96957.31;5041212;28;20110;-60
2021/11/29 09:23:57;;;;;;;1.60;0.45;;;;;;;6.02;42.19;96973.47;5057375;28;20051;-60
2021/11/29 09:26:22;;;;;;;1.60;0.50;;;;;;;6.07;44.09;96967.84;5023028;28;20646;-61
2021/11/29 09:28:47;;;;;;;0.55;0.20;;;;;;;6.14;41.38;96963.69;5046791;28;20064;-60
2021/11/29 09:31:13;;;;;;;0.82;0.30;;;;;;;6.00;41.55;96941.84;5054604;28;20025;-60
2021/11/29 09:33:39;;;;;;;0.50;0.30;;;;;;;6.24;43.76;96972.09;5053595;28;20035;-60
2021/11/29 09:36:05;;;;;;;0.60;0.20;;;;;;;6.25;45.72;96980.66;5052275;28;20429;-60
2021/11/29 09:38:32;;;;;;;1.50;0.40;;;;;;;6.24;42.93;96987.59;5052703;28;20041;-60
2021/11/29 09:40:57;;;;;;;0.80;0.30;;;;;;;6.14;45.09;96989.47;5049436;28;20021;-60
2021/11/29 09:43:23;;;;;;;1.92;0.45;;;;;;;6.15;42.88;96993.66;5055816;28;20021;-60
2021/11/29 09:45:49;;;;;;;1.40;0.40;;;;;;;6.15;43.27;96979.00;5049584;28;20021;-60
2021/11/29 09:48:16;;;;;;;0.70;0.30;;;;;;;6.12;45.06;96969.00;5053513;28;20131;-60
2021/11/29 09:50:46;;;;;;;1.40;0.40;;;;;;;6.37;42.87;97000.03;5052515;28;20725;-60
2021/11/29 09:53:13;;;;;;;;;;;;;;;6.40;40.14;97002.28;5040928;28;20040;-60
2021/11/29 09:55:39;;;;;;;1.30;0.40;;;;;;;6.26;41.71;96966.75;5043006;28;20445;-60
2021/11/29 09:58:05;;;;;;;1.85;0.38;;;;;;;6.51;38.94;97006.34;5049656;28;20024;-60
2021/11/29 10:00:35;;;;;;;1.15;0.32;;;;;;;6.70;34.76;97005.28;5034210;28;20131;-60
2021/11/29 10:03:02;;;;;;;1.02;0.30;;;;;;;6.77;34.96;97003.66;5049635;28;20017;-61
2021/11/29 10:05:28;;;;;;;1.08;0.30;;;;;;;6.74;36.70;97012.53;5018513;28;20050;-61
2021/11/29 10:07:54;;;;;;;0.88;0.30;;;;;;;6.52;38.67;96954.56;5033662;28;20048;-61
2021/11/29 10:10:29;;;;;;;0.40;0.22;;;;;;;6.87;32.73;97013.84;5046188;28;20463;-61
2021/11/29 10:13:01;;;;;;;0.60;0.22;;;;;;;6.77;32.94;96998.47;5045538;28;20027;-60
2021/11/29 10:15:33;;;;;;;0.98;0.30;;;;;;;6.87;34.43;97011.25;5038270;28;20597;-60
2021/11/29 10:18:09;;;;;;;1.15;0.30;;;;;;;6.91;34.07;97010.75;5053195;28;20021;-60
2021/11/29 10:21:07;;;;;;;1.25;0.40;;;;;;;6.97;34.48;97014.47;5039012;28;20471;-61
2021/11/29 10:23:47;;;;;;;1.10;0.35;;;;;;;6.99;34.33;97010.00;5054878;28;20048;-60
2021/11/29 10:26:16;;;;;;;0.80;0.30;;;;;;;7.00;33.76;97016.75;5033926;28;20041;-61
2021/11/29 10:28:43;;;;;;;2.22;0.40;;;;;;;6.97;35.55;97029.19;5047197;28;20761;-61
2021/11/29 10:31:22;;;;;;;1.48;0.40;;;;;;;6.71;38.01;96981.03;5046319;28;20028;-61
2021/11/29 10:33:47;;;;;;;0.63;0.20;;;;;;;7.06;37.58;97033.38;5034516;28;20355;-61
2021/11/29 10:36:14;;;;;;;0.47;0.20;;;;;;;7.05;34.39;97027.41;5035702;28;20040;-60
2021/11/29 10:38:41;;;;;;;1.02;0.32;;;;;;;7.11;36.92;97031.13;5051866;28;20132;-60
2021/11/29 10:41:08;;;;;;;0.85;0.25;;;;;;;7.07;33.31;97038.41;5060888;28;20086;-61
2021/11/29 10:43:41;;;;;;;0.65;0.20;;;;;;;7.12;36.89;97027.59;5053147;28;20060;-61
2021/11/29 10:46:36;;;;;;;0.63;0.20;;;;;;;7.23;36.73;97054.91;5062199;28;20032;-61
2021/11/29 10:49:07;;;;;;;0.30;0.20;;;;;;;7.20;35.84;97029.38;5058048;28;20044;-60
2021/11/29 10:51:33;;;;;;;1.58;0.40;;;;;;;7.25;34.20;97040.84;5056887;28;20032;-60
2021/11/29 10:54:01;;;;;;;0.40;0.22;;;;;;;7.28;30.11;97042.28;5060677;28;20166;-60
2021/11/29 10:56:30;;;;;;;1.33;0.50;;;;;;;7.23;30.80;97041.97;5039819;28;20093;-61
2021/11/29 10:58:57;;;;;;;0.80;0.30;;;;;;;7.26;31.74;97049.38;5057793;28;20013;-61
2021/11/29 11:01:47;;;;;;;0.65;0.30;;;;;;;7.30;32.25;97058.44;5037537;28;20028;-61
2021/11/29 11:04:15;;;;;;;0.95;0.30;;;;;;;7.30;35.22;97054.09;5035916;28;20033;-61
2021/11/29 11:06:46;;;;;;;0.77;0.30;;;;;;;7.35;36.25;97057.97;5042754;28;20098;-61
2021/11/29 11:09:33;;;;;;;1.02;0.30;;;;;;;7.29;34.19;97047.28;5053331;28;20021;-60
2021/11/29 11:12:04;;;;;;;1.88;0.50;;;;;;;7.40;36.07;97064.25;5042410;28;20035;-61
2021/11/29 11:14:35;;;;;;;1.88;0.50;;;;;;;7.40;33.14;97077.19;5042235;28;20112;-60
2021/11/29 11:17:01;;;;;;;2.55;0.50;;;;;;;7.36;30.02;97065.56;5048926;28;20031;-61
2021/11/29 11:19:28;;;;;;;1.60;0.30;;;;;;;7.34;29.01;97061.50;5067613;28;20044;-61
2021/11/29 11:21:55;;;;;;;1.08;0.30;;;;;;;7.37;30.81;97064.56;5063429;28;20591;-60
2021/11/29 11:24:33;;;;;;;0.55;0.20;;;;;;;7.42;32.49;97066.69;5038776;28;20687;-60
2021/11/29 11:27:00;;;;;;;1.13;0.35;;;;;;;7.43;32.09;97069.13;5054859;28;20313;-61
2021/11/29 11:29:43;;;;;;;0.85;0.30;;;;;;;7.46;31.84;97063.59;5069906;28;20035;-61
2021/11/29 11:32:20;;;;;;;0.68;0.30;;;;;;;7.43;30.19;97078.63;5046562;28;20033;-60
2021/11/29 11:34:51;;;;;;;0.50;0.20;;;;;;;7.41;28.50;97065.88;5060216;28;20487;-60
2021/11/29 11:37:20;;;;;;;1.63;0.50;;;;;;;7.36;28.67;97075.91;5047902;28;20025;-60
2021/11/29 11:39:47;;;;;;;0.70;0.30;;;;;;;7.44;29.17;97083.63;5048841;28;20039;-61